sensor_id;sensor_type;location;lat;lon;timestamp;pressure;altitude;pressure_sealevel;temperature;humidity
9307;BME280;4691;47.612;7.610;2022-11-15T00:01:19;98236.28;;;11.37;100.00
9307;BME280;4691;47.612;7.610;2022-11-15T00:03:45;98263.19;;;11.26;100.00
9307;BME280;4691;47.612;7.610;2022-11-15T00:06:11;98308.25;;;11.21;100.00
9307;BME280;4691;47.612;7.610;2022-11-15T00:08:37;98339.06;;;11.15;100.00
9307;BME280;4691;47.612;7.610;2022-11-15T00:11:03;98386.06;;;11.08;100.00
9307;BME280;4691;47.612;7.610;2022-11-15T00:13:29;98388.03;;;11.06;100.00
9307;BME280;4691;47.612;7.610;2022-11-15T00:15:59;98404.34;;;11.03;100.00
9307;BME280;4691;47.612;7.610;2022-11-15T00:18:25;98404.66;;;11.09;100.00
9307;BME280;4691;47.612;7.610;2022-11-15T00:20:50;98381.00;;;11.15;100.00
9307;BME280;4691;47.612;7.610;2022-11-15T00:23:16;98372.59;;;11.19;100.00
9307;BME280;4691;47.612;7.610;2022-11-15T00:25:41;98383.56;;;11.16;100.00
9307;BME280;4691;47.612;7.610;2022-11-15T00:28:07;98343.06;;;11.30;100.00
9307;BME280;4691;47.612;7.610;2022-11-15T00:30:32;98396.28;;;11.24;100.00
9307;BME280;4691;47.612;7.610;2022-11-15T00:33:02;98358.84;;;11.33;100.00
9307;BME280;4691;47.612;7.610;2022-11-15T00:35:28;98363.31;;;11.23;100.00
9307;BME280;4691;47.612;7.610;2022-11-15T00:37:53;98337.97;;;11.27;100.00
9307;BME280;4691;47.612;7.610;2022-11-15T00:40:18;98389.25;;;11.23;100.00
9307;BME280;4691;47.612;7.610;2022-11-15T00:42:44;98418.25;;;11.27;100.00
9307;BME280;4691;47.612;7.610;2022-11-15T00:45:09;98374.06;;;11.33;100.00
9307;BME280;4691;47.612;7.610;2022-11-15T00:47:35;98359.53;;;11.26;100.00
9307;BME280;4691;47.612;7.610;2022-11-15T00:50:00;98399.34;;;11.19;100.00
9307;BME280;4691;47.612;7.610;2022-11-15T00:52:25;98438.59;;;11.09;100.00
9307;BME280;4691;47.612;7.610;2022-11-15T00:54:50;98462.09;;;11.05;100.00
9307;BME280;4691;47.612;7.610;2022-11-15T00:57:16;98457.31;;;11.09;100.00
9307;BME280;4691;47.612;7.610;2022-11-15T00:59:41;98428.06;;;11.17;100.00
9307;BME280;4691;47.612;7.610;2022-11-15T01:02:06;98454.06;;;11.05;100.00
9307;BME280;4691;47.612;7.610;2022-11-15T01:04:32;98435.41;;;11.15;100.00
9307;BME280;4691;47.612;7.610;2022-11-15T01:06:57;98395.72;;;11.20;100.00
9307;BME280;4691;47.612;7.610;2022-11-15T01:09:22;98365.00;;;11.24;100.00
9307;BME280;4691;47.612;7.610;2022-11-15T01:11:48;98353.59;;;11.22;100.00
9307;BME280;4691;47.612;7.610;2022-11-15T01:14:13;98316.59;;;11.37;100.00
9307;BME280;4691;47.612;7.610;2022-11-15T01:16:38;98231.22;;;11.44;100.00
9307;BME280;4691;47.612;7.610;2022-11-15T01:19:04;98213.75;;;11.40;100.00
9307;BME280;4691;47.612;7.610;2022-11-15T01:21:29;98219.09;;;11.40;100.00
9307;BME280;4691;47.612;7.610;2022-11-15T01:23:56;98218.53;;;11.36;100.00
9307;BME280;4691;47.612;7.610;2022-11-15T01:26:22;98199.66;;;11.38;100.00
9307;BME280;4691;47.612;7.610;2022-11-15T01:28:48;98201.34;;;11.39;100.00
9307;BME280;4691;47.612;7.610;2022-11-15T01:31:16;98194.44;;;11.36;100.00
9307;BME280;4691;47.612;7.610;2022-11-15T01:33:43;98185.13;;;11.40;100.00
9307;BME280;4691;47.612;7.610;2022-11-15T01:36:13;98166.81;;;11.45;100.00
9307;BME280;4691;47.612;7.610;2022-11-15T01:38:39;98155.69;;;11.40;100.00
9307;BME280;4691;47.612;7.610;2022-11-15T01:41:04;98189.22;;;11.34;100.00
9307;BME280;4691;47.612;7.610;2022-11-15T01:43:33;98194.59;;;11.34;100.00
9307;BME280;4691;47.612;7.610;2022-11-15T01:46:30;98226.69;;;11.34;100.00
9307;BME280;4691;47.612;7.610;2022-11-15T01:49:01;98247.28;;;11.34;100.00
9307;BME280;4691;47.612;7.610;2022-11-15T01:51:30;98244.72;;;11.32;100.00
9307;BME280;4691;47.612;7.610;2022-11-15T01:54:02;98270.09;;;11.28;100.00
9307;BME280;4691;47.612;7.610;2022-11-15T01:56:33;98241.94;;;11.44;100.00
9307;BME280;4691;47.612;7.610;2022-11-15T01:59:04;98217.97;;;11.32;100.00
9307;BME280;4691;47.612;7.610;2022-11-15T02:01:33;98251.03;;;11.22;100.00
9307;BME280;4691;47.612;7.610;2022-11-15T02:04:02;98290.34;;;11.21;100.00
9307;BME280;4691;47.612;7.610;2022-11-15T02:06:28;98245.88;;;11.40;100.00
9307;BME280;4691;47.612;7.610;2022-11-15T02:08:55;98233.75;;;11.36;100.00
9307;BME280;4691;47.612;7.610;2022-11-15T02:11:21;98290.22;;;11.23;100.00
9307;BME280;4691;47.612;7.610;2022-11-15T02:13:46;98348.66;;;11.18;100.00
9307;BME280;4691;47.612;7.610;2022-11-15T02:18:57;98251.50;;;11.37;100.00
9307;BME280;4691;47.612;7.610;2022-11-15T02:30:45;98217.97;;;11.32;100.00
9307;BME280;4691;47.612;7.610;2022-11-15T02:33:21;98195.44;;;11.45;100.00
9307;BME280;4691;47.612;7.610;2022-11-15T02:35:57;98179.78;;;11.50;100.00
9307;BME280;4691;47.612;7.610;2022-11-15T02:38:31;98173.72;;;11.48;100.00
9307;BME280;4691;47.612;7.610;2022-11-15T02:41:09;98273.19;;;11.33;100.00
9307;BME280;4691;47.612;7.610;2022-11-15T02:43:40;98376.25;;;11.18;100.00
9307;BME280;4691;47.612;7.610;2022-11-15T02:46:28;98460.00;;;11.09;100.00
9307;BME280;4691;47.612;7.610;2022-11-15T02:49:15;98534.47;;;11.04;100.00
9307;BME280;4691;47.612;7.610;2022-11-15T02:51:41;98605.50;;;10.97;100.00
9307;BME280;4691;47.612;7.610;2022-11-15T02:54:12;98632.97;;;10.99;100.00
9307;BME280;4691;47.612;7.610;2022-11-15T02:56:39;98675.22;;;10.95;100.00
9307;BME280;4691;47.612;7.610;2022-11-15T03:01:49;98737.84;;;10.81;100.00
9307;BME280;4691;47.612;7.610;2022-11-15T03:04:54;98770.81;;;10.82;100.00
9307;BME280;4691;47.612;7.610;2022-11-15T03:07:36;98809.81;;;10.73;100.00
9307;BME280;4691;47.612;7.610;2022-11-15T03:10:18;98850.06;;;10.72;100.00
9307;BME280;4691;47.612;7.610;2022-11-15T03:12:54;98895.13;;;10.65;100.00
9307;BME280;4691;47.612;7.610;2022-11-15T03:15:24;98926.25;;;10.66;100.00
9307;BME280;4691;47.612;7.610;2022-11-15T03:22:04;98902.16;;;10.55;100.00
9307;BME280;4691;47.612;7.610;2022-11-15T03:24:34;98953.94;;;10.54;100.00
9307;BME280;4691;47.612;7.610;2022-11-15T03:27:01;98995.25;;;10.50;100.00
9307;BME280;4691;47.612;7.610;2022-11-15T03:29:33;99057.47;;;10.52;100.00
9307;BME280;4691;47.612;7.610;2022-11-15T03:32:04;99082.38;;;10.52;100.00
9307;BME280;4691;47.612;7.610;2022-11-15T03:34:36;99089.09;;;10.58;100.00
9307;BME280;4691;47.612;7.610;2022-11-15T03:37:05;99103.44;;;10.57;100.00
9307;BME280;4691;47.612;7.610;2022-11-15T03:39:32;99131.50;;;10.51;100.00
9307;BME280;4691;47.612;7.610;2022-11-15T03:44:35;99174.16;;;10.53;100.00
9307;BME280;4691;47.612;7.610;2022-11-15T03:47:09;99187.13;;;10.46;100.00
9307;BME280;4691;47.612;7.610;2022-11-15T03:49:40;99206.69;;;10.46;100.00
9307;BME280;4691;47.612;7.610;2022-11-15T03:52:10;99209.38;;;10.46;100.00
9307;BME280;4691;47.612;7.610;2022-11-15T03:54:36;99223.91;;;10.42;100.00
9307;BME280;4691;47.612;7.610;2022-11-15T03:57:01;99224.09;;;10.52;100.00
9307;BME280;4691;47.612;7.610;2022-11-15T03:59:27;99217.91;;;10.52;100.00
9307;BME280;4691;47.612;7.610;2022-11-15T04:01:52;99215.69;;;10.45;100.00
9307;BME280;4691;47.612;7.610;2022-11-15T04:04:17;99232.03;;;10.41;100.00
9307;BME280;4691;47.612;7.610;2022-11-15T04:06:43;99248.16;;;10.52;100.00
9307;BME280;4691;47.612;7.610;2022-11-15T04:09:08;99250.44;;;10.45;100.00
9307;BME280;4691;47.612;7.610;2022-11-15T04:11:33;99248.50;;;10.48;100.00
9307;BME280;4691;47.612;7.610;2022-11-15T04:13:58;99266.13;;;10.37;100.00
9307;BME280;4691;47.612;7.610;2022-11-15T04:16:24;99272.47;;;10.36;100.00
9307;BME280;4691;47.612;7.610;2022-11-15T04:18:49;99293.78;;;10.11;100.00
9307;BME280;4691;47.612;7.610;2022-11-15T04:21:34;99327.31;;;9.89;100.00
9307;BME280;4691;47.612;7.610;2022-11-15T04:24:18;99363.41;;;9.82;100.00
9307;BME280;4691;47.612;7.610;2022-11-15T04:26:44;99367.69;;;9.85;100.00
9307;BME280;4691;47.612;7.610;2022-11-15T04:29:09;99387.09;;;9.74;100.00
9307;BME280;4691;47.612;7.610;2022-11-15T04:31:53;99425.69;;;9.82;100.00
9307;BME280;4691;47.612;7.610;2022-11-15T04:34:18;99438.78;;;9.73;100.00
9307;BME280;4691;47.612;7.610;2022-11-15T04:36:44;99810.16;;;9.71;100.00
9307;BME280;4691;47.612;7.610;2022-11-15T04:39:27;99337.31;;;9.73;100.00
9307;BME280;4691;47.612;7.610;2022-11-15T04:41:53;99382.91;;;9.70;100.00
9307;BME280;4691;47.612;7.610;2022-11-15T04:44:18;99402.00;;;9.64;100.00
9307;BME280;4691;47.612;7.610;2022-11-15T04:46:43;99412.50;;;9.67;100.00
9307;BME280;4691;47.612;7.610;2022-11-15T04:49:09;99424.31;;;9.63;100.00
9307;BME280;4691;47.612;7.610;2022-11-15T04:51:34;99419.94;;;9.62;100.00
9307;BME280;4691;47.612;7.610;2022-11-15T04:53:59;99421.84;;;9.59;100.00
9307;BME280;4691;47.612;7.610;2022-11-15T04:56:25;99424.59;;;9.58;100.00
9307;BME280;4691;47.612;7.610;2022-11-15T04:58:50;99431.19;;;9.52;100.00
9307;BME280;4691;47.612;7.610;2022-11-15T05:01:16;99433.22;;;9.49;100.00
9307;BME280;4691;47.612;7.610;2022-11-15T05:03:42;99453.72;;;9.48;100.00
9307;BME280;4691;47.612;7.610;2022-11-15T05:06:26;99443.97;;;9.47;100.00
9307;BME280;4691;47.612;7.610;2022-11-15T05:08:51;99435.97;;;9.47;100.00
9307;BME280;4691;47.612;7.610;2022-11-15T05:11:17;99443.97;;;9.47;100.00
9307;BME280;4691;47.612;7.610;2022-11-15T05:13:42;99445.72;;;9.48;100.00
9307;BME280;4691;47.612;7.610;2022-11-15T05:16:07;99468.22;;;9.44;100.00
9307;BME280;4691;47.612;7.610;2022-11-15T05:18:33;99465.63;;;9.43;100.00
9307;BME280;4691;47.612;7.610;2022-11-15T05:21:06;99487.28;;;9.38;100.00
9307;BME280;4691;47.612;7.610;2022-11-15T05:23:32;99512.06;;;9.40;100.00
9307;BME280;4691;47.612;7.610;2022-11-15T05:26:01;99528.25;;;9.37;100.00
9307;BME280;4691;47.612;7.610;2022-11-15T05:28:26;99533.81;;;9.34;100.00
9307;BME280;4691;47.612;7.610;2022-11-15T05:30:52;99542.56;;;9.36;100.00
9307;BME280;4691;47.612;7.610;2022-11-15T05:33:17;99552.69;;;9.31;100.00
9307;BME280;4691;47.612;7.610;2022-11-15T05:35:48;99565.16;;;9.30;100.00
9307;BME280;4691;47.612;7.610;2022-11-15T05:38:15;99575.94;;;9.29;100.00
9307;BME280;4691;47.612;7.610;2022-11-15T05:40:41;99562.59;;;9.29;100.00
9307;BME280;4691;47.612;7.610;2022-11-15T05:43:07;99547.63;;;9.26;100.00
9307;BME280;4691;47.612;7.610;2022-11-15T05:45:33;99552.88;;;9.28;100.00
9307;BME280;4691;47.612;7.610;2022-11-15T05:48:00;99571.72;;;9.25;100.00
9307;BME280;4691;47.612;7.610;2022-11-15T05:50:29;99559.91;;;9.29;100.00
9307;BME280;4691;47.612;7.610;2022-11-15T05:52:54;99564.28;;;9.30;100.00
9307;BME280;4691;47.612;7.610;2022-11-15T05:55:20;99553.72;;;9.28;100.00
9307;BME280;4691;47.612;7.610;2022-11-15T05:57:46;99553.72;;;9.28;100.00
9307;BME280;4691;47.612;7.610;2022-11-15T06:00:11;99571.56;;;9.28;100.00
9307;BME280;4691;47.612;7.610;2022-11-15T06:02:37;99591.16;;;9.27;100.00
9307;BME280;4691;47.612;7.610;2022-11-15T06:05:02;99599.75;;;9.32;100.00
9307;BME280;4691;47.612;7.610;2022-11-15T06:07:29;99607.75;;;9.32;100.00
9307;BME280;4691;47.612;7.610;2022-11-15T06:09:54;99601.31;;;9.36;100.00
9307;BME280;4691;47.612;7.610;2022-11-15T06:12:19;99614.38;;;9.41;100.00
9307;BME280;4691;47.612;7.610;2022-11-15T06:14:45;99604.75;;;9.38;100.00
9307;BME280;4691;47.612;7.610;2022-11-15T06:17:10;99601.84;;;9.27;100.00
9307;BME280;4691;47.612;7.610;2022-11-15T06:19:35;99616.03;;;9.27;100.00
9307;BME280;4691;47.612;7.610;2022-11-15T06:22:01;99611.59;;;9.28;100.00
9307;BME280;4691;47.612;7.610;2022-11-15T06:24:26;99556.38;;;9.28;100.00
9307;BME280;4691;47.612;7.610;2022-11-15T06:26:51;99566.03;;;9.31;100.00
9307;BME280;4691;47.612;7.610;2022-11-15T06:29:17;99574.97;;;9.30;100.00
9307;BME280;4691;47.612;7.610;2022-11-15T06:31:42;99559.72;;;9.32;100.00
9307;BME280;4691;47.612;7.610;2022-11-15T06:34:07;99565.16;;;9.30;100.00
9307;BME280;4691;47.612;7.610;2022-11-15T06:36:34;99550.94;;;9.30;100.00
9307;BME280;4691;47.612;7.610;2022-11-15T06:39:00;99519.78;;;9.30;100.00
9307;BME280;4691;47.612;7.610;2022-11-15T06:41:25;99436.75;;;9.35;100.00
9307;BME280;4691;47.612;7.610;2022-11-15T06:43:50;99355.72;;;9.36;100.00
9307;BME280;4691;47.612;7.610;2022-11-15T06:46:15;99336.00;;;9.38;100.00
9307;BME280;4691;47.612;7.610;2022-11-15T06:48:41;99353.22;;;9.47;100.00
9307;BME280;4691;47.612;7.610;2022-11-15T06:51:06;99343.84;;;9.54;100.00
9307;BME280;4691;47.612;7.610;2022-11-15T06:53:32;99339.88;;;9.47;100.00
9307;BME280;4691;47.612;7.610;2022-11-15T06:56:01;99308.81;;;9.46;100.00
9307;BME280;4691;47.612;7.610;2022-11-15T06:58:27;99304.97;;;9.50;100.00
9307;BME280;4691;47.612;7.610;2022-11-15T07:00:52;99294.50;;;9.47;100.00
9307;BME280;4691;47.612;7.610;2022-11-15T07:03:18;99271.00;;;9.52;100.00
9307;BME280;4691;47.612;7.610;2022-11-15T07:05:53;99241.97;;;9.60;100.00
9307;BME280;4691;47.612;7.610;2022-11-15T07:08:19;99218.84;;;9.61;100.00
9307;BME280;4691;47.612;7.610;2022-11-15T07:10:45;99218.50;;;9.66;100.00
9307;BME280;4691;47.612;7.610;2022-11-15T07:13:10;99209.63;;;9.65;100.00
9307;BME280;4691;47.612;7.610;2022-11-15T07:15:35;99216.78;;;9.65;100.00
9307;BME280;4691;47.612;7.610;2022-11-15T07:18:01;99212.97;;;9.69;100.00
9307;BME280;4691;47.612;7.610;2022-11-15T07:20:26;99212.75;;;9.72;100.00
9307;BME280;4691;47.612;7.610;2022-11-15T07:22:59;99212.22;;;9.67;100.00
9307;BME280;4691;47.612;7.610;2022-11-15T07:25:24;99206.75;;;9.68;100.00
9307;BME280;4691;47.612;7.610;2022-11-15T07:27:59;99207.28;;;9.73;100.00
9307;BME280;4691;47.612;7.610;2022-11-15T07:30:25;99189.47;;;9.74;100.00
9307;BME280;4691;47.612;7.610;2022-11-15T07:32:58;99186.16;;;9.83;100.00
9307;BME280;4691;47.612;7.610;2022-11-15T07:35:24;99174.72;;;9.81;100.00
9307;BME280;4691;47.612;7.610;2022-11-15T07:37:57;99149.50;;;9.98;100.00
9307;BME280;4691;47.612;7.610;2022-11-15T07:40:24;99134.34;;;9.98;100.00
9307;BME280;4691;47.612;7.610;2022-11-15T07:42:50;99122.34;;;10.04;100.00
9307;BME280;4691;47.612;7.610;2022-11-15T07:45:20;99101.09;;;10.02;100.00
9307;BME280;4691;47.612;7.610;2022-11-15T07:47:46;99085.28;;;9.99;100.00
9307;BME280;4691;47.612;7.610;2022-11-15T07:50:11;99075.47;;;10.00;100.00
9307;BME280;4691;47.612;7.610;2022-11-15T07:52:37;99085.50;;;9.96;100.00
9307;BME280;4691;47.612;7.610;2022-11-15T07:55:02;99058.91;;;9.95;100.00
9307;BME280;4691;47.612;7.610;2022-11-15T07:57:29;99049.06;;;9.95;100.00
9307;BME280;4691;47.612;7.610;2022-11-15T07:59:54;99033.25;;;9.92;100.00
9307;BME280;4691;47.612;7.610;2022-11-15T08:02:19;99029.41;;;9.96;100.00
9307;BME280;4691;47.612;7.610;2022-11-15T08:04:45;99018.28;;;10.02;100.00
9307;BME280;4691;47.612;7.610;2022-11-15T08:07:10;99001.03;;;10.07;100.00
9307;BME280;4691;47.612;7.610;2022-11-15T08:09:35;99051.06;;;10.17;100.00
9307;BME280;4691;47.612;7.610;2022-11-15T08:12:01;99032.97;;;10.21;100.00
9307;BME280;4691;47.612;7.610;2022-11-15T08:14:26;99015.63;;;10.27;100.00
9307;BME280;4691;47.612;7.610;2022-11-15T08:16:51;99012.88;;;10.28;100.00
9307;BME280;4691;47.612;7.610;2022-11-15T08:19:17;98981.00;;;10.38;100.00
9307;BME280;4691;47.612;7.610;2022-11-15T08:21:43;98964.81;;;10.39;100.00
9307;BME280;4691;47.612;7.610;2022-11-15T08:24:09;98948.09;;;10.49;100.00
9307;BME280;4691;47.612;7.610;2022-11-15T08:26:35;98939.31;;;10.35;100.00
9307;BME280;4691;47.612;7.610;2022-11-15T08:29:00;98917.44;;;10.41;100.00
9307;BME280;4691;47.612;7.610;2022-11-15T08:31:25;98903.56;;;10.36;100.00
9307;BME280;4691;47.612;7.610;2022-11-15T08:33:51;98900.78;;;10.38;100.00
9307;BME280;4691;47.612;7.610;2022-11-15T08:36:16;98885.59;;;10.38;100.00
9307;BME280;4691;47.612;7.610;2022-11-15T08:38:42;98881.34;;;10.36;100.00
9307;BME280;4691;47.612;7.610;2022-11-15T08:41:12;98880.00;;;10.41;100.00
9307;BME280;4691;47.612;7.610;2022-11-15T08:43:38;98887.53;;;10.36;100.00
9307;BME280;4691;47.612;7.610;2022-11-15T08:46:03;98887.03;;;10.31;100.00
9307;BME280;4691;47.612;7.610;2022-11-15T08:48:29;98890.09;;;10.38;100.00
9307;BME280;4691;47.612;7.610;2022-11-15T08:50:55;98895.44;;;10.38;100.00
9307;BME280;4691;47.612;7.610;2022-11-15T08:53:21;98901.00;;;10.35;100.00
9307;BME280;4691;47.612;7.610;2022-11-15T08:55:46;98900.91;;;10.48;100.00
9307;BME280;4691;47.612;7.610;2022-11-15T08:58:12;98898.16;;;10.49;100.00
9307;BME280;4691;47.612;7.610;2022-11-15T09:00:37;98885.44;;;10.64;100.00
9307;BME280;4691;47.612;7.610;2022-11-15T09:03:06;98854.78;;;10.68;100.00
9307;BME280;4691;47.612;7.610;2022-11-15T09:05:32;98832.44;;;10.69;100.00
9307;BME280;4691;47.612;7.610;2022-11-15T09:08:00;98791.34;;;10.70;100.00
9307;BME280;4691;47.612;7.610;2022-11-15T09:10:25;98755.09;;;10.66;100.00
9307;BME280;4691;47.612;7.610;2022-11-15T09:12:51;101607.16;;;10.58;100.00
9307;BME280;4691;47.612;7.610;2022-11-15T09:15:16;99124.16;;;10.66;100.00
9307;BME280;4691;47.612;7.610;2022-11-15T09:17:42;99029.78;;;10.77;100.00
9307;BME280;4691;47.612;7.610;2022-11-15T09:20:08;99045.81;;;10.77;100.00
9307;BME280;4691;47.612;7.610;2022-11-15T09:22:34;99046.91;;;10.74;100.00
9307;BME280;4691;47.612;7.610;2022-11-15T09:24:59;99055.88;;;10.73;100.00
9307;BME280;4691;47.612;7.610;2022-11-15T09:27:31;99067.72;;;10.58;100.00
9307;BME280;4691;47.612;7.610;2022-11-15T09:29:56;99033.19;;;10.55;100.00
9307;BME280;4691;47.612;7.610;2022-11-15T09:32:22;99010.09;;;10.54;100.00
9307;BME280;4691;47.612;7.610;2022-11-15T09:34:49;98954.06;;;10.63;100.00
9307;BME280;4691;47.612;7.610;2022-11-15T09:37:14;98904.84;;;10.66;100.00
9307;BME280;4691;47.612;7.610;2022-11-15T09:39:39;98858.09;;;10.72;100.00
9307;BME280;4691;47.612;7.610;2022-11-15T09:44:56;98809.56;;;10.76;100.00
9307;BME280;4691;47.612;7.610;2022-11-15T09:47:56;98792.78;;;10.85;100.00
9307;BME280;4691;47.612;7.610;2022-11-15T09:50:49;98769.19;;;11.02;100.00
9307;BME280;4691;47.612;7.610;2022-11-15T09:53:21;98776.72;;;11.08;100.00
9307;BME280;4691;47.612;7.610;2022-11-15T09:55:53;98665.41;;;11.17;100.00
9307;BME280;4691;47.612;7.610;2022-11-15T10:01:04;98623.88;;;11.22;100.00
9307;BME280;4691;47.612;7.610;2022-11-15T10:03:36;98600.31;;;11.16;100.00
9307;BME280;4691;47.612;7.610;2022-11-15T10:06:05;98577.00;;;11.07;100.00
9307;BME280;4691;47.612;7.610;2022-11-15T10:11:22;98547.84;;;11.25;100.00
9307;BME280;4691;47.612;7.610;2022-11-15T10:13:50;98534.34;;;11.26;100.00
9307;BME280;4691;47.612;7.610;2022-11-15T10:19:16;98428.19;;;11.37;100.00
9307;BME280;4691;47.612;7.610;2022-11-15T10:24:26;98385.72;;;11.63;100.00
9307;BME280;4691;47.612;7.610;2022-11-15T10:26:54;98410.47;;;11.55;100.00
9307;BME280;4691;47.612;7.610;2022-11-15T10:29:21;98414.97;;;11.45;100.00
9307;BME280;4691;47.612;7.610;2022-11-15T10:31:47;98406.75;;;11.37;100.00
9307;BME280;4691;47.612;7.610;2022-11-15T10:34:17;98424.78;;;11.34;100.00
9307;BME280;4691;47.612;7.610;2022-11-15T10:39:19;98424.22;;;11.31;100.00
9307;BME280;4691;47.612;7.610;2022-11-15T10:41:44;98382.38;;;11.40;100.00
9307;BME280;4691;47.612;7.610;2022-11-15T10:44:25;98384.28;;;11.49;100.00
9307;BME280;4691;47.612;7.610;2022-11-15T10:49:21;98320.16;;;11.57;100.00
9307;BME280;4691;47.612;7.610;2022-11-15T10:54:42;98304.78;;;11.49;100.00
9307;BME280;4691;47.612;7.610;2022-11-15T10:57:13;98289.72;;;11.48;100.00
9307;BME280;4691;47.612;7.610;2022-11-15T10:59:45;98228.41;;;11.55;100.00
9307;BME280;4691;47.612;7.610;2022-11-15T11:02:37;98225.63;;;11.66;100.00
9307;BME280;4691;47.612;7.610;2022-11-15T11:05:27;98188.66;;;11.80;100.00
9307;BME280;4691;47.612;7.610;2022-11-15T11:10:58;98027.38;;;11.95;100.00
9307;BME280;4691;47.612;7.610;2022-11-15T11:13:26;98000.53;;;12.05;100.00
9307;BME280;4691;47.612;7.610;2022-11-15T11:16:25;97949.81;;;11.94;100.00
9307;BME280;4691;47.612;7.610;2022-11-15T11:19:33;97939.25;;;11.92;100.00
9307;BME280;4691;47.612;7.610;2022-11-15T11:22:25;97901.97;;;11.99;100.00
9307;BME280;4691;47.612;7.610;2022-11-15T11:27:33;97907.06;;;12.20;100.00
9307;BME280;4691;47.612;7.610;2022-11-15T11:30:09;97857.22;;;12.09;100.00
9307;BME280;4691;47.612;7.610;2022-11-15T11:33:00;97795.50;;;12.19;100.00
9307;BME280;4691;47.612;7.610;2022-11-15T11:35:47;97736.59;;;12.27;100.00
9307;BME280;4691;47.612;7.610;2022-11-15T11:38:22;97684.69;;;12.28;100.00
9307;BME280;4691;47.612;7.610;2022-11-15T11:43:51;97636.31;;;12.38;100.00
9307;BME280;4691;47.612;7.610;2022-11-15T11:46:55;97655.44;;;12.43;100.00
9307;BME280;4691;47.612;7.610;2022-11-15T11:49:46;97612.25;;;12.46;100.00
9307;BME280;4691;47.612;7.610;2022-11-15T11:55:13;97584.44;;;12.47;100.00
9307;BME280;4691;47.612;7.610;2022-11-15T11:58:03;97598.78;;;12.38;100.00
9307;BME280;4691;47.612;7.610;2022-11-15T12:00:33;97669.09;;;12.24;100.00
9307;BME280;4691;47.612;7.610;2022-11-15T12:03:43;97735.25;;;12.23;100.00
9307;BME280;4691;47.612;7.610;2022-11-15T12:09:23;97710.13;;;12.24;100.00
9307;BME280;4691;47.612;7.610;2022-11-15T12:17:10;97809.59;;;12.21;100.00
9307;BME280;4691;47.612;7.610;2022-11-15T12:19:36;97849.56;;;12.14;100.00
9307;BME280;4691;47.612;7.610;2022-11-15T12:24:39;97845.63;;;11.91;100.00
9307;BME280;4691;47.612;7.610;2022-11-15T12:27:09;97884.22;;;11.98;100.00
9307;BME280;4691;47.612;7.610;2022-11-15T12:29:42;97884.16;;;11.90;100.00
9307;BME280;4691;47.612;7.610;2022-11-15T12:32:31;97961.84;;;11.80;100.00
9307;BME280;4691;47.612;7.610;2022-11-15T12:35:00;97953.50;;;11.93;100.00
9307;BME280;4691;47.612;7.610;2022-11-15T12:40:19;97940.94;;;11.93;100.00
9307;BME280;4691;47.612;7.610;2022-11-15T12:45:42;97863.88;;;12.05;100.00
9307;BME280;4691;47.612;7.610;2022-11-15T13:01:09;97583.03;;;12.35;100.00
9307;BME280;4691;47.612;7.610;2022-11-15T13:03:35;97605.44;;;12.26;100.00
9307;BME280;4691;47.612;7.610;2022-11-15T13:06:03;97577.41;;;12.20;100.00
9307;BME280;4691;47.612;7.610;2022-11-15T13:08:44;97569.72;;;12.17;100.00
9307;BME280;4691;47.612;7.610;2022-11-15T13:11:44;97605.34;;;12.09;100.00
9307;BME280;4691;47.612;7.610;2022-11-15T13:17:10;97633.50;;;12.13;100.00
9307;BME280;4691;47.612;7.610;2022-11-15T13:19:40;97660.63;;;12.10;100.00
9307;BME280;4691;47.612;7.610;2022-11-15T13:22:09;97588.66;;;12.15;100.00
9307;BME280;4691;47.612;7.610;2022-11-15T13:24:54;97627.13;;;12.14;100.00
9307;BME280;4691;47.612;7.610;2022-11-15T13:27:20;97547.13;;;12.19;100.00
9307;BME280;4691;47.612;7.610;2022-11-15T13:29:46;97538.94;;;12.21;100.00
9307;BME280;4691;47.612;7.610;2022-11-15T13:32:13;97509.94;;;12.16;100.00
9307;BME280;4691;47.612;7.610;2022-11-15T13:34:43;97502.53;;;12.10;100.00
9307;BME280;4691;47.612;7.610;2022-11-15T13:39:49;97520.75;;;12.07;100.00
9307;BME280;4691;47.612;7.610;2022-11-15T13:42:16;97476.09;;;12.15;100.00
9307;BME280;4691;47.612;7.610;2022-11-15T13:45:01;97496.72;;;12.23;100.00
9307;BME280;4691;47.612;7.610;2022-11-15T13:47:28;97482.16;;;12.26;100.00
9307;BME280;4691;47.612;7.610;2022-11-15T13:49:57;97448.31;;;12.33;100.00
9307;BME280;4691;47.612;7.610;2022-11-15T13:52:26;97399.78;;;12.44;100.00
9307;BME280;4691;47.612;7.610;2022-11-15T13:57:26;97334.09;;;12.32;100.00
9307;BME280;4691;47.612;7.610;2022-11-15T13:59:55;97335.13;;;12.31;100.00
9307;BME280;4691;47.612;7.610;2022-11-15T14:02:29;97336.44;;;12.27;100.00
9307;BME280;4691;47.612;7.610;2022-11-15T14:04:58;97344.47;;;12.27;100.00
9307;BME280;4691;47.612;7.610;2022-11-15T14:07:26;97379.31;;;12.18;100.00
9307;BME280;4691;47.612;7.610;2022-11-15T14:09:52;97343.78;;;12.16;100.00
9307;BME280;4691;47.612;7.610;2022-11-15T14:12:27;97315.00;;;12.18;100.00
9307;BME280;4691;47.612;7.610;2022-11-15T14:14:54;97281.81;;;12.19;100.00
9307;BME280;4691;47.612;7.610;2022-11-15T14:17:33;97256.53;;;12.22;100.00
9307;BME280;4691;47.612;7.610;2022-11-15T14:19:58;97239.16;;;12.18;100.00
9307;BME280;4691;47.612;7.610;2022-11-15T14:22:26;97181.69;;;12.20;100.00
9307;BME280;4691;47.612;7.610;2022-11-15T14:25:19;97201.78;;;12.16;100.00
9307;BME280;4691;47.612;7.610;2022-11-15T14:30:32;97202.81;;;12.15;100.00
9307;BME280;4691;47.612;7.610;2022-11-15T14:32:58;97216.53;;;12.04;100.00
9307;BME280;4691;47.612;7.610;2022-11-15T14:35:23;97242.31;;;11.97;100.00
9307;BME280;4691;47.612;7.610;2022-11-15T14:37:49;97255.88;;;11.95;100.00
9307;BME280;4691;47.612;7.610;2022-11-15T14:40:19;97270.94;;;11.88;100.00
9307;BME280;4691;47.612;7.610;2022-11-15T14:42:47;97252.19;;;11.96;100.00
9307;BME280;4691;47.612;7.610;2022-11-15T14:45:18;97224.22;;;12.07;100.00
9307;BME280;4691;47.612;7.610;2022-11-15T14:47:44;97194.09;;;12.22;100.00
9307;BME280;4691;47.612;7.610;2022-11-15T14:50:14;97191.88;;;12.25;100.00
9307;BME280;4691;47.612;7.610;2022-11-15T14:52:40;97148.19;;;12.25;100.00
9307;BME280;4691;47.612;7.610;2022-11-15T14:55:20;97096.59;;;12.23;100.00
9307;BME280;4691;47.612;7.610;2022-11-15T14:57:46;97085.88;;;12.23;100.00
9307;BME280;4691;47.612;7.610;2022-11-15T15:00:13;97063.13;;;12.18;100.00
9307;BME280;4691;47.612;7.610;2022-11-15T15:02:39;97070.16;;;12.19;100.00